Melfort, Canada
Current Conditions -  °F | °C
As of 7:00 AM on Saturday 20 Dec 2014 (Local Time) from CYBU Reporting Station
Overcast Overcast  
Wind Chill:   Ceiling: 700
Heat Index: 18°   Visibility: 9mi
Dew Point: 18°   Wind: 8mph
Humidity: 100%   Direction: 110°ESE
Pressure: 29.86"   Gusts: NA
Location:  52.86°N, 104.62°W
Report Text: CYBU 201300Z AUTO 11007KT 9SM OVC007 M08/M08 A2986 RMK SLP139
Loading
Personal Weather Stations






























Interactive Weather Map New forecast layout! Learn more

10-Day Weather Forecast

Advertisements
Track Severe Weather on mobile